Time;durP1;ratioP1;P1;durP2;ratioP2;P2;SDS_P1;SDS_P2;PMS_P1;PMS_P2;Temp;Humidity;BMP_temperature;BMP_pressure;BME280_temperature;BME280_humidity;BME280_pressure;Samples;Min_cycle;Max_cycle;Signal;HPM_P1;HPM_P2
2020/12/14 08:02:32;;;;;;;18.63;2.15;;;;;;;;;;5052485;28;20383;-74
2020/12/14 08:05:03;;;;;;;26.05;3.47;;;;;;;;;;5068214;28;20024;-74
2020/12/14 08:07:31;;;;;;;22.40;3.70;;;;;;;;;;5069038;28;20024;-74
2020/12/14 08:09:58;;;;;;;33.88;3.17;;;;;;;;;;5068637;28;20024;-74
2020/12/14 08:12:24;;;;;;;26.85;2.78;;;;;;;;;;5067923;28;20110;-74
2020/12/14 08:14:50;;;;;;;41.17;4.15;;;;;;;;;;5067722;28;20016;-74
2020/12/14 08:17:15;;;;;;;23.73;4.70;;;;;;;;;;5066958;28;20036;-74
2020/12/14 08:19:41;;;;;;;35.05;5.13;;;;;;;;;;5065886;28;20051;-74
2020/12/14 08:22:10;;;;;;;36.58;4.35;;;;;;;;;;5066630;28;20044;-77
2020/12/14 08:24:36;;;;;;;30.13;3.50;;;;;;;;;;5066660;28;20033;-74
2020/12/14 08:27:12;;;;;;;30.05;3.55;;;;;;;;;;5065575;28;20082;-75
2020/12/14 08:29:46;;;;;;;41.67;7.03;;;;;;;;;;5061115;28;20029;-74
2020/12/14 08:32:14;;;;;;;31.50;6.57;;;;;;;;;;5066603;28;20094;-73
2020/12/14 08:34:40;;;;;;;39.08;4.10;;;;;;;;;;5067020;28;20029;-73
2020/12/14 08:37:05;;;;;;;36.40;5.00;;;;;;;;;;5065773;28;20091;-73
2020/12/14 08:39:31;;;;;;;35.33;5.05;;;;;;;;;;5066416;28;20029;-77
2020/12/14 08:42:05;;;;;;;44.28;7.20;;;;;;;;;;5066770;28;20048;-73
2020/12/14 08:44:31;;;;;;;31.63;4.38;;;;;;;;;;5066872;28;20526;-73
2020/12/14 08:46:56;;;;;;;40.78;5.82;;;;;;;;;;5066452;28;20052;-75
2020/12/14 08:49:21;;;;;;;29.63;4.55;;;;;;;;;;5067046;28;20041;-73
2020/12/14 08:51:47;;;;;;;30.17;4.68;;;;;;;;;;5067735;28;20457;-73
2020/12/14 08:54:20;;;;;;;48.95;5.22;;;;;;;;;;5067995;28;20574;-73
2020/12/14 08:56:45;;;;;;;38.42;5.45;;;;;;;;;;5067811;28;20124;-75
2020/12/14 08:59:14;;;;;;;41.85;5.20;;;;;;;;;;5066090;28;20115;-73
2020/12/14 09:01:40;;;;;;;37.45;5.22;;;;;;;;;;5064325;28;20396;-74
2020/12/14 09:04:05;;;;;;;41.67;4.43;;;;;;;;;;5066562;28;20029;-73
2020/12/14 09:06:32;;;;;;;36.10;4.22;;;;;;;;;;5066321;28;20522;-73
2020/12/14 09:08:58;;;;;;;36.97;4.93;;;;;;;;;;5064996;28;20029;-73
2020/12/14 09:11:28;;;;;;;41.65;5.30;;;;;;;;;;5066453;28;20456;-75
2020/12/14 09:13:53;;;;;;;46.67;4.18;;;;;;;;;;5054378;28;20037;-74
2020/12/14 09:16:18;;;;;;;31.73;4.15;;;;;;;;;;5054693;28;20033;-73
2020/12/14 09:18:44;;;;;;;32.28;3.40;;;;;;;;;;5053789;28;20065;-74
2020/12/14 09:21:10;;;;;;;31.35;4.25;;;;;;;;;;5052118;28;20037;-73
2020/12/14 09:23:35;;;;;;;40.58;4.15;;;;;;;;;;5053566;28;20080;-73
2020/12/14 09:26:00;;;;;;;32.70;5.50;;;;;;;;;;5053071;28;20473;-73
2020/12/14 09:28:26;;;;;;;30.55;3.85;;;;;;;;;;5051355;28;20136;-74
2020/12/14 09:30:51;;;;;;;39.95;4.38;;;;;;;;;;5052706;28;20028;-73
2020/12/14 09:33:16;;;;;;;35.22;4.50;;;;;;;;;;5053055;28;20040;-73
2020/12/14 09:35:41;;;;;;;31.60;3.47;;;;;;;;;;5051892;28;20083;-73
2020/12/14 09:38:07;;;;;;;46.75;4.95;;;;;;;;;;5052405;28;20042;-73
2020/12/14 09:40:32;;;;;;;32.55;4.47;;;;;;;;;;5052028;28;20491;-77
2020/12/14 09:42:57;;;;;;;39.05;4.70;;;;;;;;;;5052749;28;20024;-73
2020/12/14 09:45:22;;;;;;;36.78;6.80;;;;;;;;;;5052820;28;20048;-73
2020/12/14 09:47:48;;;;;;;35.97;4.22;;;;;;;;;;5053852;28;20037;-74
2020/12/14 09:50:14;;;;;;;34.20;3.90;;;;;;;;;;5048366;28;20080;-74
2020/12/14 09:52:39;;;;;;;33.10;3.97;;;;;;;;;;5049393;28;20025;-75
2020/12/14 09:55:04;;;;;;;27.15;3.72;;;;;;;;;;5051472;28;20499;-73
2020/12/14 09:57:30;;;;;;;32.92;3.58;;;;;;;;;;5050722;28;20033;-73
2020/12/14 09:59:55;;;;;;;28.98;4.28;;;;;;;;;;5039093;28;20036;-74
2020/12/14 10:02:21;;;;;;;36.25;3.85;;;;;;;;;;5044386;28;20120;-73
2020/12/14 10:04:46;;;;;;;24.38;3.70;;;;;;;;;;5046952;28;20075;-74
2020/12/14 10:07:11;;;;;;;27.70;4.57;;;;;;;;;;5050550;28;20029;-78
2020/12/14 10:09:36;;;;;;;26.15;3.97;;;;;;;;;;5042437;28;20024;-73
2020/12/14 10:12:02;;;;;;;25.88;3.17;;;;;;;;;;5056924;28;20044;-75
2020/12/14 10:14:27;;;;;;;21.60;2.85;;;;;;;;;;5058514;28;20029;-74
2020/12/14 10:16:52;;;;;;;21.27;3.63;;;;;;;;;;5061096;28;20025;-73
2020/12/14 10:19:18;;;;;;;20.42;2.50;;;;;;;;;;5055885;28;20068;-74
2020/12/14 10:21:43;;;;;;;28.98;2.78;;;;;;;;;;5050440;28;20032;-73
2020/12/14 10:24:08;;;;;;;22.67;3.42;;;;;;;;;;5053801;28;20056;-74
2020/12/14 10:26:36;;;;;;;20.98;2.72;;;;;;;;;;5044310;28;20029;-73
2020/12/14 10:29:01;;;;;;;19.52;2.35;;;;;;;;;;5053464;28;20469;-74
2020/12/14 10:31:27;;;;;;;13.20;3.03;;;;;;;;;;5066688;28;20106;-73
2020/12/14 10:33:52;;;;;;;24.02;2.72;;;;;;;;;;5053048;28;20029;-75
2020/12/14 10:36:20;;;;;;;16.13;2.78;;;;;;;;;;5051112;28;20025;-74
2020/12/14 10:38:46;;;;;;;15.45;2.20;;;;;;;;;;5046084;28;20420;-73
2020/12/14 10:41:11;;;;;;;11.75;2.10;;;;;;;;;;5050064;28;20029;-73
2020/12/14 10:43:36;;;;;;;12.35;1.88;;;;;;;;;;5047160;28;20013;-73
2020/12/14 10:46:02;;;;;;;15.60;1.85;;;;;;;;;;5048765;28;20090;-74
2020/12/14 10:48:27;;;;;;;13.57;1.83;;;;;;;;;;5047998;28;20040;-74
2020/12/14 10:50:53;;;;;;;12.23;2.28;;;;;;;;;;5049986;28;20033;-74
2020/12/14 10:53:18;;;;;;;14.82;2.25;;;;;;;;;;5048276;28;20055;-73
2020/12/14 10:55:43;;;;;;;14.02;1.83;;;;;;;;;;5053043;28;20923;-74
2020/12/14 10:58:09;;;;;;;21.15;3.38;;;;;;;;;;5052199;28;20415;-73
2020/12/14 11:00:35;;;;;;;12.00;2.15;;;;;;;;;;5033327;28;20140;-78
2020/12/14 11:03:00;;;;;;;13.02;1.70;;;;;;;;;;5049682;28;20024;-76
2020/12/14 11:05:26;;;;;;;17.23;2.53;;;;;;;;;;5047359;28;20029;-74
2020/12/14 11:07:53;;;;;;;14.75;2.22;;;;;;;;;;5048538;28;20414;-73
2020/12/14 11:10:18;;;;;;;14.75;2.42;;;;;;;;;;5049141;28;20028;-72
2020/12/14 11:12:44;;;;;;;16.08;2.00;;;;;;;;;;5042263;28;20385;-74
2020/12/14 11:15:09;;;;;;;13.02;2.20;;;;;;;;;;5046751;28;20141;-74
2020/12/14 11:17:35;;;;;;;16.60;2.33;;;;;;;;;;5045936;28;20093;-78
2020/12/14 11:20:01;;;;;;;15.02;2.97;;;;;;;;;;5048836;28;20039;-77
2020/12/14 11:22:26;;;;;;;16.40;2.10;;;;;;;;;;5048751;28;20041;-75
2020/12/14 11:24:51;;;;;;;17.50;1.90;;;;;;;;;;5048363;28;20632;-74
2020/12/14 11:27:17;;;;;;;14.07;2.03;;;;;;;;;;5068944;28;20012;-74
2020/12/14 11:29:42;;;;;;;18.65;2.78;;;;;;;;;;5069283;28;20649;-74
2020/12/14 11:32:07;;;;;;;14.00;2.20;;;;;;;;;;5049579;28;20037;-73
2020/12/14 11:34:32;;;;;;;22.98;2.83;;;;;;;;;;5054497;28;20424;-74
2020/12/14 11:36:59;;;;;;;15.98;1.80;;;;;;;;;;5047937;28;20058;-73
2020/12/14 11:39:24;;;;;;;12.57;1.92;;;;;;;;;;5047999;28;20032;-72
2020/12/14 11:41:50;;;;;;;18.10;2.10;;;;;;;;;;5048982;28;20024;-73
2020/12/14 11:44:15;;;;;;;20.45;3.20;;;;;;;;;;5051642;28;20068;-73
2020/12/14 11:46:41;;;;;;;13.98;1.80;;;;;;;;;;5046895;28;20037;-73
2020/12/14 11:49:07;;;;;;;17.27;3.30;;;;;;;;;;5049349;28;20381;-77
2020/12/14 11:51:34;;;;;;;8.95;2.00;;;;;;;;;;5052905;28;20049;-75
2020/12/14 11:54:00;;;;;;;12.57;1.55;;;;;;;;;;5048392;28;20040;-73
2020/12/14 11:56:25;;;;;;;10.30;1.10;;;;;;;;;;5049395;28;20025;-77
2020/12/14 11:58:50;;;;;;;10.38;2.10;;;;;;;;;;5048303;28;20033;-73
2020/12/14 12:01:19;;;;;;;8.25;1.75;;;;;;;;;;5049530;28;20096;-74
2020/12/14 12:03:45;;;;;;;13.88;2.40;;;;;;;;;;5047889;28;20024;-74
2020/12/14 12:06:10;;;;;;;9.75;2.90;;;;;;;;;;5049901;28;20432;-73
2020/12/14 12:08:35;;;;;;;12.63;2.47;;;;;;;;;;5051070;28;20104;-74
2020/12/14 12:11:01;;;;;;;14.40;1.80;;;;;;;;;;5052313;28;20036;-74
2020/12/14 12:13:26;;;;;;;8.73;2.15;;;;;;;;;;5050824;28;20033;-73
2020/12/14 12:15:51;;;;;;;15.55;2.40;;;;;;;;;;5049735;28;20080;-73
2020/12/14 12:18:17;;;;;;;9.48;1.50;;;;;;;;;;5046338;28;20056;-74
2020/12/14 12:20:42;;;;;;;16.63;2.25;;;;;;;;;;5051067;28;20120;-74
2020/12/14 12:23:07;;;;;;;20.40;2.45;;;;;;;;;;5047213;28;20037;-74
2020/12/14 12:25:32;;;;;;;19.38;2.60;;;;;;;;;;5046506;28;20110;-74
2020/12/14 12:27:58;;;;;;;17.38;2.55;;;;;;;;;;5047124;28;20025;-74
2020/12/14 12:30:23;;;;;;;20.27;2.90;;;;;;;;;;5048615;28;20411;-73
2020/12/14 12:32:48;;;;;;;23.15;2.75;;;;;;;;;;5049063;28;20021;-79
2020/12/14 12:35:14;;;;;;;20.65;3.33;;;;;;;;;;5047361;28;20043;-74
2020/12/14 12:37:39;;;;;;;26.08;4.03;;;;;;;;;;5045373;28;20877;-74
2020/12/14 12:40:07;;;;;;;23.58;3.55;;;;;;;;;;5046202;28;20083;-73
2020/12/14 12:42:33;;;;;;;16.60;2.53;;;;;;;;;;5046940;28;20151;-74
2020/12/14 12:44:58;;;;;;;24.98;4.35;;;;;;;;;;5048333;28;20600;-73
2020/12/14 12:47:23;;;;;;;24.48;3.50;;;;;;;;;;5049181;28;20021;-73
2020/12/14 12:49:49;;;;;;;26.02;2.63;;;;;;;;;;5051807;28;20035;-77
2020/12/14 12:52:14;;;;;;;18.40;3.45;;;;;;;;;;5050847;28;20488;-74
2020/12/14 12:54:39;;;;;;;18.15;3.42;;;;;;;;;;5050642;28;20098;-73
2020/12/14 12:57:05;;;;;;;18.05;3.00;;;;;;;;;;5050445;28;20495;-73
2020/12/14 12:59:31;;;;;;;19.13;3.08;;;;;;;;;;5049625;28;20032;-73
2020/12/14 13:01:56;;;;;;;26.70;3.67;;;;;;;;;;5050307;28;20049;-76
2020/12/14 13:04:21;;;;;;;14.27;2.30;;;;;;;;;;5050210;28;20041;-73
2020/12/14 13:06:47;;;;;;;15.23;2.17;;;;;;;;;;5049808;28;20059;-73
2020/12/14 13:09:12;;;;;;;15.40;2.45;;;;;;;;;;5049251;28;20071;-75
2020/12/14 13:11:41;;;;;;;30.25;3.75;;;;;;;;;;5048968;28;20036;-73
2020/12/14 13:14:13;;;;;;;17.23;2.70;;;;;;;;;;5046147;28;20398;-74
2020/12/14 13:16:39;;;;;;;21.55;3.33;;;;;;;;;;5050456;28;20052;-73
2020/12/14 13:19:07;;;;;;;18.85;2.13;;;;;;;;;;5049220;28;20037;-73
2020/12/14 13:21:33;;;;;;;16.75;2.35;;;;;;;;;;5047944;28;20028;-78
2020/12/14 13:23:58;;;;;;;22.38;2.72;;;;;;;;;;5049726;28;20457;-73
2020/12/14 13:26:23;;;;;;;21.23;2.90;;;;;;;;;;5047946;28;20040;-77
2020/12/14 13:28:49;;;;;;;12.98;2.65;;;;;;;;;;5039652;28;20457;-78
2020/12/14 13:31:15;;;;;;;21.77;3.28;;;;;;;;;;5046064;28;20036;-73
2020/12/14 13:33:40;;;;;;;20.25;2.90;;;;;;;;;;5057790;28;20135;-75
2020/12/14 13:36:06;;;;;;;24.08;2.88;;;;;;;;;;5049988;28;20517;-74
2020/12/14 13:38:31;;;;;;;16.92;2.85;;;;;;;;;;5051553;28;20028;-76
2020/12/14 13:40:56;;;;;;;22.80;3.15;;;;;;;;;;5047778;28;20107;-73
2020/12/14 13:43:22;;;;;;;15.15;2.90;;;;;;;;;;5050357;28;20029;-73
2020/12/14 13:45:47;;;;;;;19.88;4.25;;;;;;;;;;5048344;28;20120;-73
2020/12/14 13:48:12;;;;;;;23.23;3.45;;;;;;;;;;5050375;28;20043;-73
2020/12/14 13:50:38;;;;;;;17.67;4.13;;;;;;;;;;5066337;28;20044;-78
2020/12/14 13:53:03;;;;;;;23.50;3.08;;;;;;;;;;5051433;28;20619;-73
2020/12/14 13:55:31;;;;;;;16.42;3.33;;;;;;;;;;5055177;28;20044;-73
2020/12/14 13:57:57;;;;;;;29.05;4.32;;;;;;;;;;5065284;28;20107;-74
2020/12/14 14:00:23;;;;;;;27.70;3.13;;;;;;;;;;5051190;28;20116;-73
2020/12/14 14:02:49;;;;;;;14.18;2.47;;;;;;;;;;5047942;28;20448;-73
2020/12/14 14:05:14;;;;;;;29.70;3.53;;;;;;;;;;5048994;28;20024;-73
2020/12/14 14:07:39;;;;;;;21.67;2.97;;;;;;;;;;5049690;28;20071;-73
2020/12/14 14:10:05;;;;;;;25.00;3.17;;;;;;;;;;5049595;28;20045;-73
2020/12/14 14:12:30;;;;;;;29.30;2.97;;;;;;;;;;5050978;28;20044;-75
2020/12/14 14:14:55;;;;;;;21.35;3.50;;;;;;;;;;5049406;28;20355;-73
2020/12/14 14:17:21;;;;;;;22.20;3.28;;;;;;;;;;5051086;28;20037;-73
2020/12/14 14:19:48;;;;;;;20.35;2.60;;;;;;;;;;5050301;28;20040;-73
2020/12/14 14:22:14;;;;;;;19.10;2.97;;;;;;;;;;5050249;28;20421;-74
2020/12/14 14:24:39;;;;;;;26.48;2.85;;;;;;;;;;5052876;28;20028;-74
2020/12/14 14:27:04;;;;;;;26.35;3.00;;;;;;;;;;5050145;28;20108;-73
2020/12/14 14:29:29;;;;;;;15.75;2.65;;;;;;;;;;5049089;28;21296;-74
2020/12/14 14:31:56;;;;;;;21.98;3.72;;;;;;;;;;5064842;28;20044;-73
2020/12/14 14:34:22;;;;;;;17.17;3.10;;;;;;;;;;5050398;28;20398;-73
2020/12/14 14:36:51;;;;;;;18.52;3.67;;;;;;;;;;5049014;28;20024;-73
2020/12/14 14:39:16;;;;;;;21.88;3.90;;;;;;;;;;5048641;28;20159;-73
2020/12/14 14:41:45;;;;;;;21.58;3.95;;;;;;;;;;5048300;28;20104;-75
2020/12/14 14:44:10;;;;;;;23.75;4.75;;;;;;;;;;5048775;28;20190;-73
2020/12/14 14:46:36;;;;;;;27.98;5.03;;;;;;;;;;5049490;28;20464;-74
2020/12/14 14:49:01;;;;;;;15.95;3.08;;;;;;;;;;5050479;28;20083;-73
2020/12/14 14:51:26;;;;;;;21.42;3.17;;;;;;;;;;5049277;28;20032;-73
2020/12/14 14:53:52;;;;;;;22.73;4.30;;;;;;;;;;5045865;28;20040;-74
2020/12/14 14:56:17;;;;;;;18.40;3.10;;;;;;;;;;5041305;28;20423;-73
2020/12/14 14:58:42;;;;;;;24.00;3.33;;;;;;;;;;5046313;28;20036;-73
2020/12/14 15:01:07;;;;;;;17.75;2.55;;;;;;;;;;5047668;28;20068;-77
2020/12/14 15:03:33;;;;;;;21.73;3.35;;;;;;;;;;5049134;28;20021;-73
2020/12/14 15:05:58;;;;;;;22.00;3.92;;;;;;;;;;5046872;28;20017;-73
2020/12/14 15:08:23;;;;;;;18.42;2.97;;;;;;;;;;5047314;28;20045;-73
2020/12/14 15:10:48;;;;;;;18.05;2.83;;;;;;;;;;5044829;28;20037;-74
2020/12/14 15:13:14;;;;;;;31.23;3.63;;;;;;;;;;5051879;28;20042;-73
2020/12/14 15:15:43;;;;;;;18.23;3.72;;;;;;;;;;5048741;28;20072;-73
2020/12/14 15:18:09;;;;;;;23.35;4.40;;;;;;;;;;5050429;28;20047;-73
2020/12/14 15:20:34;;;;;;;28.50;4.60;;;;;;;;;;5049640;28;20121;-73
2020/12/14 15:23:00;;;;;;;29.77;5.00;;;;;;;;;;5048487;28;20473;-77
2020/12/14 15:25:25;;;;;;;31.17;5.80;;;;;;;;;;5049461;28;20032;-73
2020/12/14 15:27:50;;;;;;;23.17;5.10;;;;;;;;;;5052192;28;20394;-74
2020/12/14 15:30:15;;;;;;;33.72;8.68;;;;;;;;;;5051628;28;20032;-73
2020/12/14 15:32:41;;;;;;;21.52;5.78;;;;;;;;;;5048904;28;20480;-74
2020/12/14 15:35:06;;;;;;;18.52;4.10;;;;;;;;;;5050347;28;20084;-73
2020/12/14 15:37:31;;;;;;;20.98;3.55;;;;;;;;;;5043752;28;20041;-73
2020/12/14 15:39:57;;;;;;;23.50;3.67;;;;;;;;;;5048338;28;20392;-73
2020/12/14 15:42:22;;;;;;;18.92;3.33;;;;;;;;;;5047877;28;20699;-73
2020/12/14 15:44:48;;;;;;;21.30;3.78;;;;;;;;;;5065288;28;20036;-73
2020/12/14 15:47:13;;;;;;;25.00;3.03;;;;;;;;;;5052658;28;20031;-73
2020/12/14 15:49:39;;;;;;;26.98;3.83;;;;;;;;;;5060155;28;20412;-73
2020/12/14 15:52:04;;;;;;;23.08;5.05;;;;;;;;;;5059660;28;20040;-73
2020/12/14 15:54:29;;;;;;;22.33;3.45;;;;;;;;;;5063974;28;20028;-73
2020/12/14 15:56:54;;;;;;;24.23;3.60;;;;;;;;;;5050161;28;20025;-73
2020/12/14 15:59:20;;;;;;;32.67;6.13;;;;;;;;;;5055351;28;20111;-74
2020/12/14 16:01:51;;;;;;;33.95;9.65;;;;;;;;;;5050989;28;20053;-73
2020/12/14 16:04:17;;;;;;;24.85;4.93;;;;;;;;;;5059318;28;20020;-73
2020/12/14 16:06:42;;;;;;;47.20;9.13;;;;;;;;;;5048378;28;20036;-75
2020/12/14 16:09:07;;;;;;;35.40;5.30;;;;;;;;;;5059310;28;20024;-73
2020/12/14 16:11:32;;;;;;;23.00;5.40;;;;;;;;;;5060902;28;20041;-73
2020/12/14 16:13:58;;;;;;;19.08;3.70;;;;;;;;;;5055540;28;20492;-73
2020/12/14 16:16:23;;;;;;;17.83;3.28;;;;;;;;;;5062715;28;20021;-73
2020/12/14 16:18:48;;;;;;;12.63;3.33;;;;;;;;;;5051698;28;20025;-73
2020/12/14 16:21:16;;;;;;;25.05;3.30;;;;;;;;;;5050345;28;20044;-73
2020/12/14 16:23:42;;;;;;;13.93;2.78;;;;;;;;;;5060901;28;20102;-73
2020/12/14 16:26:07;;;;;;;32.22;3.70;;;;;;;;;;5047884;28;20017;-77
2020/12/14 16:28:32;;;;;;;16.98;3.13;;;;;;;;;;5051424;28;20126;-74
2020/12/14 16:30:57;;;;;;;19.75;3.97;;;;;;;;;;5054506;28;20112;-73
2020/12/14 16:33:23;;;;;;;16.52;3.13;;;;;;;;;;5053640;28;20044;-73
2020/12/14 16:35:48;;;;;;;16.55;3.00;;;;;;;;;;5052430;28;20393;-77
2020/12/14 16:38:13;;;;;;;19.45;2.60;;;;;;;;;;5051842;28;20385;-77
2020/12/14 16:40:39;;;;;;;29.75;3.08;;;;;;;;;;5052123;28;20055;-74
2020/12/14 16:43:04;;;;;;;23.80;2.83;;;;;;;;;;5056127;28;20075;-75
2020/12/14 16:45:30;;;;;;;15.57;3.58;;;;;;;;;;5048799;28;20457;-74
2020/12/14 16:47:56;;;;;;;13.65;3.00;;;;;;;;;;5053375;28;20056;-73
2020/12/14 16:50:21;;;;;;;16.58;2.88;;;;;;;;;;5053285;28;20656;-77
2020/12/14 16:52:47;;;;;;;19.48;3.05;;;;;;;;;;5053687;28;20044;-73
2020/12/14 16:55:12;;;;;;;17.80;2.65;;;;;;;;;;5055155;28;20020;-73
2020/12/14 16:57:37;;;;;;;14.32;2.92;;;;;;;;;;5051323;28;20028;-73
2020/12/14 17:00:04;;;;;;;17.38;2.83;;;;;;;;;;5052533;28;20033;-73
2020/12/14 17:02:29;;;;;;;22.73;3.42;;;;;;;;;;5051971;28;20086;-75
2020/12/14 17:05:00;;;;;;;22.65;3.22;;;;;;;;;;5055101;28;20045;-76
2020/12/14 17:07:32;;;;;;;19.02;3.33;;;;;;;;;;5053729;28;20476;-77
2020/12/14 17:09:58;;;;;;;17.90;3.38;;;;;;;;;;5052904;28;20052;-74
2020/12/14 17:12:23;;;;;;;16.33;2.25;;;;;;;;;;5053821;28;20032;-73
2020/12/14 17:14:49;;;;;;;16.48;3.17;;;;;;;;;;5053109;28;20021;-74
2020/12/14 17:17:17;;;;;;;19.55;4.65;;;;;;;;;;5051997;28;20017;-73
2020/12/14 17:19:42;;;;;;;18.75;3.45;;;;;;;;;;5052664;28;20040;-73
2020/12/14 17:22:13;;;;;;;15.77;3.20;;;;;;;;;;5052382;28;20017;-73
2020/12/14 17:24:39;;;;;;;24.63;4.13;;;;;;;;;;5052338;28;20026;-76
2020/12/14 17:27:04;;;;;;;16.08;3.10;;;;;;;;;;5054636;28;20771;-73
2020/12/14 17:29:29;;;;;;;14.57;2.75;;;;;;;;;;5049668;28;20021;-76
2020/12/14 17:31:56;;;;;;;63.28;16.75;;;;;;;;;;5050250;28;20433;-73
2020/12/14 17:34:29;;;;;;;18.92;5.00;;;;;;;;;;5051063;28;20548;-74
2020/12/14 17:36:54;;;;;;;17.40;3.78;;;;;;;;;;5049643;28;20066;-72
2020/12/14 17:39:19;;;;;;;13.77;3.03;;;;;;;;;;5053377;28;20033;-74
2020/12/14 17:41:45;;;;;;;19.52;3.78;;;;;;;;;;5058815;28;20064;-74
2020/12/14 17:44:10;;;;;;;30.02;8.02;;;;;;;;;;5059829;28;20025;-73
2020/12/14 17:46:36;;;;;;;28.67;8.30;;;;;;;;;;5065900;28;20066;-76
2020/12/14 17:49:02;;;;;;;37.92;13.88;;;;;;;;;;5055167;28;20120;-72
2020/12/14 17:51:27;;;;;;;31.67;11.80;;;;;;;;;;5066107;28;20512;-73
2020/12/14 17:53:52;;;;;;;21.52;7.95;;;;;;;;;;5057386;28;20052;-73
2020/12/14 17:56:17;;;;;;;35.33;14.02;;;;;;;;;;5050292;28;20036;-73
2020/12/14 17:58:43;;;;;;;42.28;19.60;;;;;;;;;;5066364;28;20032;-77
2020/12/14 18:01:08;;;;;;;64.65;26.67;;;;;;;;;;5060914;28;20045;-73
2020/12/14 18:03:33;;;;;;;85.10;35.78;;;;;;;;;;5051074;28;20119;-73
2020/12/14 18:05:59;;;;;;;86.43;41.22;;;;;;;;;;5050133;28;20147;-73
2020/12/14 18:08:25;;;;;;;93.07;40.38;;;;;;;;;;5055013;28;20107;-73
2020/12/14 18:10:50;;;;;;;90.72;39.85;;;;;;;;;;5050005;28;20036;-73
2020/12/14 18:13:16;;;;;;;86.15;41.40;;;;;;;;;;5049637;28;20025;-73
2020/12/14 18:15:42;;;;;;;38.15;10.30;;;;;;;;;;5050007;28;20028;-73
2020/12/14 18:18:07;;;;;;;53.17;23.45;;;;;;;;;;5066770;28;20033;-73
2020/12/14 18:20:37;;;;;;;58.80;24.58;;;;;;;;;;5056617;28;20012;-73
2020/12/14 18:23:03;;;;;;;52.88;20.27;;;;;;;;;;5061344;28;20093;-73
2020/12/14 18:25:28;;;;;;;51.42;23.25;;;;;;;;;;5055572;28;20123;-73
2020/12/14 18:27:53;;;;;;;45.67;17.63;;;;;;;;;;5048030;28;20032;-73
2020/12/14 18:30:18;;;;;;;50.10;16.13;;;;;;;;;;5048477;28;20095;-72
2020/12/14 18:48:07;;;;;;;40.70;16.20;;;;;;;;;;5053043;28;20087;-73
2020/12/14 21:25:24;;;;;;;30.02;4.32;;;;;;;;;;5059529;28;20041;-75
2020/12/14 21:27:49;;;;;;;24.40;4.15;;;;;;;;;;5045596;28;20021;-73
2020/12/14 21:30:14;;;;;;;41.40;6.07;;;;;;;;;;5038778;28;20434;-73
2020/12/14 21:32:39;;;;;;;46.88;11.45;;;;;;;;;;5039490;28;20059;-73
2020/12/14 21:35:05;;;;;;;54.95;11.52;;;;;;;;;;5046769;28;20017;-74
2020/12/14 21:37:32;;;;;;;36.05;4.45;;;;;;;;;;5048970;28;20027;-74
2020/12/14 21:39:58;;;;;;;46.03;6.85;;;;;;;;;;5055110;28;20036;-73
2020/12/14 21:42:24;;;;;;;29.67;6.00;;;;;;;;;;5050556;28;20028;-74
2020/12/14 21:44:50;;;;;;;39.35;7.35;;;;;;;;;;5056877;28;20027;-74
2020/12/14 21:47:17;;;;;;;37.78;7.13;;;;;;;;;;5047468;28;20484;-73
2020/12/14 21:49:43;;;;;;;43.17;8.43;;;;;;;;;;5046762;28;20035;-73
2020/12/14 21:52:12;;;;;;;47.13;6.90;;;;;;;;;;5051729;28;20991;-73
2020/12/14 21:54:38;;;;;;;38.17;5.43;;;;;;;;;;5048149;28;20033;-74
2020/12/14 21:57:04;;;;;;;45.72;7.82;;;;;;;;;;5046757;28;20040;-73
2020/12/14 21:59:30;;;;;;;44.65;5.38;;;;;;;;;;5049362;28;20021;-74
2020/12/14 22:01:55;;;;;;;37.88;5.28;;;;;;;;;;5052898;28;20089;-73
2020/12/14 22:04:21;;;;;;;32.35;3.60;;;;;;;;;;5064220;28;20024;-74
2020/12/14 22:06:47;;;;;;;40.45;4.22;;;;;;;;;;5052788;28;20025;-72
2020/12/14 22:09:12;;;;;;;46.92;4.50;;;;;;;;;;5051044;28;20076;-72
2020/12/14 22:11:38;;;;;;;36.20;4.88;;;;;;;;;;5052139;28;20041;-73
2020/12/14 22:14:04;;;;;;;37.28;4.68;;;;;;;;;;5049595;28;20025;-73
2020/12/14 22:16:31;;;;;;;45.53;3.90;;;;;;;;;;5051563;28;20033;-73
2020/12/14 22:18:56;;;;;;;35.47;4.80;;;;;;;;;;5046628;28;20025;-78
2020/12/14 22:21:22;;;;;;;40.97;7.82;;;;;;;;;;5048333;28;20381;-73
2020/12/14 22:23:48;;;;;;;43.58;12.98;;;;;;;;;;5049085;28;20043;-74
2020/12/14 22:26:14;;;;;;;58.75;13.95;;;;;;;;;;5048657;28;20028;-73
2020/12/14 22:28:39;;;;;;;38.05;8.10;;;;;;;;;;5051880;28;20021;-72
2020/12/14 22:31:06;;;;;;;39.28;5.78;;;;;;;;;;5048252;28;20041;-74
2020/12/14 22:33:31;;;;;;;45.55;4.57;;;;;;;;;;5049479;28;20036;-73
2020/12/14 22:35:56;;;;;;;32.85;4.35;;;;;;;;;;5050308;28;20021;-74
2020/12/14 22:38:22;;;;;;;33.72;3.80;;;;;;;;;;5049279;28;20068;-74
2020/12/14 22:40:47;;;;;;;42.75;4.43;;;;;;;;;;5045460;28;20044;-73
2020/12/14 22:43:12;;;;;;;31.13;5.88;;;;;;;;;;5046936;28;20052;-72
2020/12/14 22:45:37;;;;;;;34.90;3.80;;;;;;;;;;5049219;28;20036;-73
2020/12/14 22:48:03;;;;;;;47.63;4.60;;;;;;;;;;5049070;28;20437;-77
2020/12/14 22:50:28;;;;;;;41.88;5.80;;;;;;;;;;5049409;28;20048;-73
2020/12/14 22:52:53;;;;;;;67.35;17.13;;;;;;;;;;5048638;28;20044;-73
2020/12/14 22:55:18;;;;;;;56.08;13.32;;;;;;;;;;5046868;28;20083;-74
2020/12/14 22:57:44;;;;;;;57.53;12.60;;;;;;;;;;5047786;28;20075;-73
2020/12/14 23:00:10;;;;;;;50.22;11.40;;;;;;;;;;5044256;28;20108;-73
